Time;durP1;ratioP1;P1;durP2;ratioP2;P2;SDS_P1;SDS_P2;PMS_P1;PMS_P2;Temp;Humidity;BMP_temperature;BMP_pressure;BME280_temperature;BME280_humidity;BME280_pressure;Samples;Min_cycle;Max_cycle;Signal;HPM_P1;HPM_P2
2022/08/23 00:01:53;;;;;;;4.97;1.45;;;;;;;16.15;100.00;96162.31;5082176;28;20111;-74
2022/08/23 00:04:25;;;;;;;5.13;1.70;;;;;;;16.23;100.00;96167.47;5083947;28;20028;-74
2022/08/23 00:06:52;;;;;;;4.07;1.70;;;;;;;16.26;100.00;96161.78;5078447;28;20078;-74
2022/08/23 00:09:20;;;;;;;5.90;1.97;;;;;;;16.14;100.00;96158.03;5084930;28;20028;-74
2022/08/23 00:11:50;;;;;;;3.63;1.50;;;;;;;16.07;100.00;96167.78;5082195;28;20054;-74
2022/08/23 00:14:29;;;;;;;5.83;1.87;;;;;;;16.01;100.00;96166.72;5082762;28;20024;-74
2022/08/23 00:16:56;;;;;;;5.03;1.90;;;;;;;15.97;100.00;96168.13;5079721;28;20049;-74
2022/08/23 00:19:23;;;;;;;5.73;2.03;;;;;;;15.84;100.00;96159.28;5083408;28;20046;-74
2022/08/23 00:21:50;;;;;;;2.87;1.27;;;;;;;15.86;100.00;96165.19;5082754;28;20542;-74
2022/08/23 00:24:17;;;;;;;3.43;1.50;;;;;;;15.86;100.00;96165.19;5085472;28;20129;-74
2022/08/23 00:26:55;;;;;;;3.83;2.00;;;;;;;15.90;100.00;96159.31;5078183;28;20062;-74
2022/08/23 00:29:24;;;;;;;3.13;1.53;;;;;;;15.84;100.00;96159.28;5076996;28;20054;-74
2022/08/23 00:31:50;;;;;;;4.70;1.90;;;;;;;15.79;100.00;96165.13;5079471;28;20370;-74
2022/08/23 00:34:16;;;;;;;2.93;1.63;;;;;;;15.75;100.00;96159.41;5080434;28;20043;-74
2022/08/23 00:36:43;;;;;;;3.13;1.60;;;;;;;15.75;100.00;96167.34;5078107;28;20039;-74
2022/08/23 00:39:10;;;;;;;8.47;2.10;;;;;;;15.76;100.00;96157.56;5089036;28;20032;-74
2022/08/23 00:41:36;;;;;;;5.70;1.70;;;;;;;15.74;100.00;96163.06;5089719;28;20036;-74
2022/08/23 00:47:38;;;;;;;3.67;1.90;;;;;;;15.72;100.00;96158.97;5080561;28;20763;-74
2022/08/23 00:49:57;;;;;;;9.47;1.60;;;;;;;15.59;100.00;96153.53;5087410;28;20032;-73
2022/08/23 00:52:32;;;;;;;4.78;1.40;;;;;;;15.63;100.00;96152.97;5085579;28;20036;-73
2022/08/23 00:54:58;;;;;;;4.27;1.47;;;;;;;15.55;100.00;96156.56;5086538;28;20043;-73
2022/08/23 00:57:26;;;;;;;5.23;1.67;;;;;;;15.56;100.00;96146.81;5085594;28;20041;-74
2022/08/23 00:59:52;;;;;;;4.87;1.90;;;;;;;15.49;100.00;96151.22;5066899;28;20040;-76
2022/08/23 01:02:18;;;;;;;5.47;2.70;;;;;;;15.51;100.00;96157.16;5084275;28;20830;-74
2022/08/23 01:04:51;;;;;;;5.27;2.60;;;;;;;15.52;100.00;96156.13;5086867;28;20059;-74
2022/08/23 01:07:16;;;;;;;7.43;2.50;;;;;;;15.47;100.00;96153.25;5078001;28;20031;-74
2022/08/23 01:09:46;;;;;;;3.97;2.00;;;;;;;15.38;100.00;96151.75;5085253;28;20070;-74
2022/08/23 01:12:22;;;;;;;3.10;1.80;;;;;;;15.32;100.00;96148.88;5083903;28;20032;-74
2022/08/23 01:14:57;;;;;;;3.87;2.07;;;;;;;15.28;100.00;96142.28;5084636;28;20020;-74
2022/08/23 01:17:32;;;;;;;3.37;1.70;;;;;;;15.31;100.00;96144.56;5081642;28;20038;-74
2022/08/23 01:20:04;;;;;;;4.47;1.97;;;;;;;15.27;100.00;96147.78;5085420;28;20477;-74
2022/08/23 01:22:46;;;;;;;4.23;1.73;;;;;;;15.24;100.00;96143.69;5086653;28;20028;-73
2022/08/23 01:25:17;;;;;;;3.90;1.60;;;;;;;15.16;100.00;96148.31;5083831;28;20059;-74
2022/08/23 01:27:44;;;;;;;4.77;2.10;;;;;;;14.90;100.00;96151.50;5084787;28;20063;-73
2022/08/23 01:30:16;;;;;;;4.57;1.83;;;;;;;14.75;100.00;96155.00;5085708;28;20028;-73
2022/08/23 01:32:46;;;;;;;3.43;1.90;;;;;;;14.77;100.00;96157.50;5065959;28;20035;-73
2022/08/23 01:35:13;;;;;;;4.57;1.57;;;;;;;14.68;100.00;96155.94;5084430;28;20020;-74
2022/08/23 01:37:39;;;;;;;3.77;1.60;;;;;;;14.81;100.00;96158.75;5086762;28;20054;-73
2022/08/23 01:40:06;;;;;;;4.10;2.30;;;;;;;14.77;100.00;96160.94;5083848;28;20028;-74
2022/08/23 01:42:33;;;;;;;5.43;1.83;;;;;;;14.77;100.00;96166.25;5083333;28;20062;-73
2022/08/23 01:44:59;;;;;;;4.63;1.87;;;;;;;14.70;100.00;96160.06;5081855;28;20477;-74
2022/08/23 01:47:26;;;;;;;6.63;2.27;;;;;;;14.73;100.00;96161.53;5067604;28;20038;-74
2022/08/23 01:49:52;;;;;;;2.93;1.70;;;;;;;14.74;100.00;96158.66;5079542;28;20125;-74
2022/08/23 01:52:18;;;;;;;3.43;1.73;;;;;;;14.79;100.00;96158.94;5084221;28;20059;-74
2022/08/23 01:54:44;;;;;;;5.53;2.20;;;;;;;14.71;100.00;96164.34;5084227;28;20020;-74
2022/08/23 01:57:10;;;;;;;3.77;1.93;;;;;;;14.63;100.00;96161.00;5085465;28;20038;-73
2022/08/23 01:59:37;;;;;;;5.00;2.10;;;;;;;14.59;100.00;96165.84;5084803;28;20170;-74
2022/08/23 02:02:02;;;;;;;6.10;2.10;;;;;;;14.55;100.00;96162.75;5088052;28;20129;-73
2022/08/23 02:04:29;;;;;;;4.73;2.10;;;;;;;14.50;100.00;96166.91;5088313;28;20056;-74
2022/08/23 02:06:55;;;;;;;3.77;2.00;;;;;;;14.50;100.00;96166.91;5088813;28;20070;-74
2022/08/23 02:09:23;;;;;;;6.30;2.33;;;;;;;14.37;100.00;96167.56;5088773;28;20513;-73
2022/08/23 02:11:49;;;;;;;6.33;2.60;;;;;;;14.39;100.00;96174.31;5087885;28;20067;-73
2022/08/23 02:14:18;;;;;;;5.70;2.20;;;;;;;14.33;100.00;96172.41;5084872;28;20054;-73
2022/08/23 02:16:54;;;;;;;7.07;2.90;;;;;;;14.27;100.00;96183.72;5087078;28;20032;-74
2022/08/23 02:19:20;;;;;;;4.50;2.30;;;;;;;14.26;100.00;96173.34;5082636;28;20040;-73
2022/08/23 02:21:46;;;;;;;5.17;2.43;;;;;;;14.19;100.00;96173.25;5064105;28;20439;-73
2022/08/23 02:24:17;;;;;;;4.43;2.60;;;;;;;14.03;100.00;96178.72;5085271;28;20043;-74
2022/08/23 02:26:52;;;;;;;4.90;3.00;;;;;;;14.02;100.00;96177.91;5082664;28;20101;-73
2022/08/23 02:29:21;;;;;;;6.23;3.00;;;;;;;14.03;100.00;96182.19;5088128;28;20039;-73
2022/08/23 02:31:48;;;;;;;5.53;3.07;;;;;;;14.01;100.00;96178.88;5087984;28;20097;-73
2022/08/23 02:34:16;;;;;;;3.90;2.47;;;;;;;13.83;100.00;96189.81;5088136;28;20028;-73
2022/08/23 02:36:43;;;;;;;9.20;3.40;;;;;;;13.74;100.00;96193.53;5084968;28;20027;-73
2022/08/23 02:39:10;;;;;;;4.93;2.80;;;;;;;13.48;100.00;96191.31;5075357;28;20055;-73
2022/08/23 02:41:37;;;;;;;8.00;3.10;;;;;;;13.49;100.00;96194.78;5078886;28;20016;-73
2022/08/23 02:44:06;;;;;;;6.40;3.20;;;;;;;13.59;100.00;96196.16;5088164;28;20060;-73
2022/08/23 02:46:31;;;;;;;5.50;2.73;;;;;;;13.49;100.00;96200.88;5086975;28;20023;-73
2022/08/23 02:48:57;;;;;;;7.47;3.17;;;;;;;13.41;100.00;96201.78;5086332;28;20047;-73
2022/08/23 02:51:25;;;;;;;6.40;3.03;;;;;;;13.41;100.00;96200.94;5087755;28;20039;-74
2022/08/23 02:53:51;;;;;;;7.33;3.30;;;;;;;13.31;100.00;96198.56;5081729;28;20469;-73
2022/08/23 02:56:19;;;;;;;5.70;3.20;;;;;;;13.27;100.00;96202.53;5083334;28;20036;-73
2022/08/23 02:58:45;;;;;;;8.53;3.33;;;;;;;13.24;100.00;96202.03;5086941;28;20092;-73
2022/08/23 03:01:16;;;;;;;5.57;3.30;;;;;;;13.20;100.00;96201.56;5087848;28;20032;-73
2022/08/23 03:03:44;;;;;;;7.20;3.43;;;;;;;13.19;100.00;96206.03;5086495;28;20036;-73
2022/08/23 03:06:12;;;;;;;4.60;2.77;;;;;;;13.17;100.00;96197.44;5087776;28;20035;-73
2022/08/23 03:08:38;;;;;;;6.97;3.60;;;;;;;13.11;100.00;96199.97;5085730;28;20113;-73
2022/08/23 03:11:12;;;;;;;5.20;3.50;;;;;;;13.17;100.00;96199.25;5083930;28;20039;-73
2022/08/23 03:13:39;;;;;;;5.73;3.43;;;;;;;13.23;100.00;96201.22;5082534;28;20797;-73
2022/08/23 03:16:07;;;;;;;7.03;3.60;;;;;;;13.17;100.00;96194.81;5080465;28;20059;-73
2022/08/23 03:18:34;;;;;;;5.77;3.53;;;;;;;13.14;100.00;96199.63;5084331;28;20095;-73
2022/08/23 03:21:00;;;;;;;6.23;3.53;;;;;;;13.04;100.00;96202.47;5085092;28;20396;-74
2022/08/23 03:23:27;;;;;;;7.07;3.37;;;;;;;13.01;100.00;96196.72;5084232;28;20032;-73
2022/08/23 03:25:56;;;;;;;7.67;3.47;;;;;;;13.15;100.00;96198.63;5083227;28;20032;-74
2022/08/23 03:28:26;;;;;;;8.10;3.30;;;;;;;13.14;100.00;96195.16;5070839;28;20458;-73
2022/08/23 03:30:52;;;;;;;6.80;3.13;;;;;;;13.05;100.00;96195.41;5067580;28;20066;-73
2022/08/23 03:33:18;;;;;;;6.53;4.03;;;;;;;13.02;100.00;96193.13;5086418;28;20110;-73
2022/08/23 03:35:46;;;;;;;6.80;3.83;;;;;;;13.05;100.00;96203.31;5087430;28;20035;-73
2022/08/23 03:38:13;;;;;;;6.10;3.53;;;;;;;13.02;100.00;96193.94;5088027;28;20512;-73
2022/08/23 03:40:39;;;;;;;6.70;3.87;;;;;;;12.85;100.00;96195.84;5084653;28;20044;-73
2022/08/23 03:43:05;;;;;;;7.20;4.10;;;;;;;12.87;100.00;96198.31;5069811;28;20074;-73
2022/08/23 03:45:31;;;;;;;7.00;3.57;;;;;;;12.71;100.00;96197.41;5084387;28;20036;-73
2022/08/23 03:47:57;;;;;;;9.33;4.20;;;;;;;12.81;100.00;96199.84;5084732;28;20093;-73
2022/08/23 03:50:24;;;;;;;5.87;3.93;;;;;;;12.81;100.00;96199.84;5084512;28;20112;-73
2022/08/23 03:52:51;;;;;;;5.67;3.80;;;;;;;12.86;100.00;96201.94;5082444;28;20036;-74
2022/08/23 03:55:16;;;;;;;5.53;3.67;;;;;;;12.84;100.00;96199.47;5077121;28;20028;-73
2022/08/23 03:57:47;;;;;;;5.33;3.53;;;;;;;12.85;100.00;96197.69;5085111;28;20039;-73
2022/08/23 04:00:15;;;;;;;7.03;4.10;;;;;;;12.81;100.00;96199.84;5084285;28;20132;-74
2022/08/23 04:02:43;;;;;;;6.70;3.67;;;;;;;12.80;100.00;96198.19;5066150;28;20021;-74
2022/08/23 04:05:11;;;;;;;13.40;4.30;;;;;;;12.83;100.00;96200.47;5084226;28;20043;-73
2022/08/23 04:08:01;;;;;;;7.83;4.00;;;;;;;12.75;100.00;96203.19;5083300;28;20040;-73
2022/08/23 04:10:28;;;;;;;11.30;4.13;;;;;;;12.65;100.00;96205.22;5083333;28;20445;-73
2022/08/23 04:12:55;;;;;;;7.00;4.23;;;;;;;12.60;100.00;96210.16;5074714;28;20514;-73
2022/08/23 04:15:23;;;;;;;6.30;4.37;;;;;;;12.57;100.00;96213.16;5087425;28;20165;-73
2022/08/23 04:17:49;;;;;;;8.07;4.03;;;;;;;12.53;100.00;96207.38;5087640;28;20459;-73
2022/08/23 04:20:16;;;;;;;9.23;4.20;;;;;;;12.36;100.00;96206.63;5085879;28;20114;-74
2022/08/23 04:22:56;;;;;;;9.10;4.20;;;;;;;12.45;100.00;96218.00;5084553;28;20036;-73
2022/08/23 04:25:24;;;;;;;7.03;4.43;;;;;;;12.43;100.00;96220.78;5070649;28;20460;-73
2022/08/23 04:27:50;;;;;;;6.67;4.23;;;;;;;12.50;100.00;96219.09;5086662;28;20034;-73
2022/08/23 04:30:18;;;;;;;6.53;4.20;;;;;;;12.47;100.00;96216.84;5086627;28;20020;-73
2022/08/23 04:32:46;;;;;;;7.47;4.30;;;;;;;12.42;100.00;96223.59;5090328;28;20046;-73
2022/08/23 04:35:12;;;;;;;6.77;3.93;;;;;;;12.42;100.00;96220.97;5080556;28;20036;-73
2022/08/23 04:37:38;;;;;;;9.50;3.57;;;;;;;12.50;100.00;96224.38;5084899;28;20127;-73
2022/08/23 04:42:51;;;;;;;7.47;3.43;;;;;;;12.62;100.00;96234.56;5083607;28;20036;-73
2022/08/23 04:45:17;;;;;;;6.47;3.73;;;;;;;12.64;100.00;96229.94;5081262;28;20024;-73
2022/08/23 04:47:47;;;;;;;6.23;3.53;;;;;;;12.80;100.00;96221.13;5086551;28;20496;-73
2022/08/23 04:50:14;;;;;;;6.53;3.67;;;;;;;12.67;100.00;96229.59;5085576;28;20042;-73
2022/08/23 04:53:10;;;;;;;6.60;3.83;;;;;;;12.73;100.00;96231.53;5070551;28;20039;-73
2022/08/23 04:55:45;;;;;;;7.13;4.03;;;;;;;12.85;100.00;96222.25;5086420;28;20066;-73
2022/08/23 04:58:11;;;;;;;6.57;3.57;;;;;;;12.83;100.00;96228.69;5086820;28;20028;-73
2022/08/23 05:00:44;;;;;;;8.13;3.60;;;;;;;12.93;100.00;96232.75;5064847;28;20469;-73
2022/08/23 05:03:09;;;;;;;5.50;3.63;;;;;;;13.05;100.00;96237.66;5064168;28;20040;-73
2022/08/23 05:05:35;;;;;;;5.70;3.37;;;;;;;13.17;100.00;96233.59;5089523;28;20043;-73
2022/08/23 05:08:03;;;;;;;6.87;3.80;;;;;;;13.31;100.00;96234.69;5070921;28;20031;-73
2022/08/23 05:10:28;;;;;;;8.47;4.53;;;;;;;13.49;100.00;96243.16;5077976;28;20025;-73
2022/08/23 05:12:54;;;;;;;9.67;4.73;;;;;;;13.63;100.00;96239.72;5084712;28;20040;-73
2022/08/23 05:15:21;;;;;;;8.53;3.50;;;;;;;13.85;100.00;96242.53;5066288;28;20030;-73
2022/08/23 05:17:53;;;;;;;8.25;4.32;;;;;;;13.73;100.00;96255.34;5086768;28;20055;-73
2022/08/23 05:20:20;;;;;;;7.77;4.17;;;;;;;14.07;100.00;96257.50;5087109;28;20070;-73
2022/08/23 05:22:46;;;;;;;7.20;4.27;;;;;;;14.00;100.00;96256.56;5084619;28;20100;-73
2022/08/23 05:25:48;;;;;;;7.83;4.30;;;;;;;14.29;100.00;96258.44;5069960;28;20024;-73
2022/08/23 05:28:34;;;;;;;7.60;5.27;;;;;;;14.68;100.00;96251.25;5086862;28;20505;-73
2022/08/23 05:31:05;;;;;;;9.57;5.77;;;;;;;14.95;100.00;96249.72;5086548;28;20504;-73
2022/08/23 05:33:40;;;;;;;10.87;5.07;;;;;;;15.49;100.00;96241.34;5086786;28;20035;-73
2022/08/23 05:36:08;;;;;;;6.47;3.70;;;;;;;15.73;100.00;96242.81;5086482;28;20089;-74
2022/08/23 05:38:35;;;;;;;6.10;3.70;;;;;;;16.16;100.00;96240.91;5085493;28;20536;-73
2022/08/23 05:41:02;;;;;;;5.87;3.30;;;;;;;16.21;100.00;96241.13;5064288;28;20576;-74
2022/08/23 05:43:29;;;;;;;6.30;3.07;;;;;;;15.75;100.00;96238.94;5084048;28;20032;-74
2022/08/23 05:46:03;;;;;;;5.27;3.30;;;;;;;16.30;100.00;96244.47;5086160;28;20020;-73
2022/08/23 05:48:33;;;;;;;5.87;3.50;;;;;;;16.66;100.00;96248.72;5088354;28;20035;-74
2022/08/23 05:51:21;;;;;;;6.20;3.23;;;;;;;16.55;100.00;96250.13;5087074;28;20600;-73
2022/08/23 05:53:49;;;;;;;6.97;3.10;;;;;;;16.65;100.00;96255.88;5082180;28;20481;-73
2022/08/23 05:56:21;;;;;;;6.43;3.38;;;;;;;17.13;100.00;96255.91;5069315;28;20557;-73
2022/08/23 05:58:49;;;;;;;5.55;3.08;;;;;;;17.25;100.00;96255.34;5074452;28;20085;-74
2022/08/23 06:01:16;;;;;;;6.72;3.30;;;;;;;16.96;100.00;96262.59;5082742;28;20040;-74
2022/08/23 06:03:42;;;;;;;8.25;4.32;;;;;;;17.09;100.00;96259.97;5082800;28;20035;-74
2022/08/23 06:06:10;;;;;;;6.20;3.58;;;;;;;16.42;100.00;96273.91;5077122;28;20107;-73
2022/08/23 06:08:39;;;;;;;7.32;3.55;;;;;;;16.82;100.00;96263.56;5068291;28;20046;-73
2022/08/23 06:11:10;;;;;;;5.18;3.33;;;;;;;16.15;100.00;96272.94;5074904;28;20024;-74
2022/08/23 06:13:42;;;;;;;;;;;;;;;16.34;100.00;96272.25;5085745;28;20093;-73
2022/08/23 06:16:10;;;;;;;5.83;3.53;;;;;;;16.79;100.00;96267.41;5082386;28;19912;-73
2022/08/23 06:18:36;;;;;;;5.63;3.65;;;;;;;17.03;100.00;96275.91;5084785;28;20506;-74
2022/08/23 06:21:22;;;;;;;8.03;3.93;;;;;;;16.92;100.00;96270.13;5069153;28;20040;-74
2022/08/23 06:23:48;;;;;;;5.70;3.83;;;;;;;17.40;100.00;96274.56;5086485;28;20036;-74
2022/08/23 06:26:18;;;;;;;7.20;3.40;;;;;;;18.25;100.00;96272.25;5095119;28;20035;-74
2022/08/23 06:28:46;;;;;;;6.25;3.22;;;;;;;19.21;96.38;96271.56;5085920;28;20557;-74
2022/08/23 06:31:12;;;;;;;4.70;2.78;;;;;;;19.20;95.52;96288.59;5085376;28;20407;-74
2022/08/23 06:33:42;;;;;;;6.90;3.25;;;;;;;19.68;90.37;96272.16;5083044;28;20122;-74
2022/08/23 06:36:33;;;;;;;5.43;2.60;;;;;;;19.14;91.07;96278.78;5084940;28;20024;-74
2022/08/23 06:39:12;;;;;;;5.57;2.80;;;;;;;19.89;88.85;96271.00;5077360;28;20135;-74
2022/08/23 06:42:08;;;;;;;6.20;2.97;;;;;;;20.31;86.26;96269.41;5080800;28;20498;-74
2022/08/23 06:44:41;;;;;;;6.82;3.08;;;;;;;20.48;83.98;96269.66;5084395;28;20066;-74
2022/08/23 06:47:24;;;;;;;4.75;3.33;;;;;;;21.16;78.07;96271.41;5084979;28;20110;-74
2022/08/23 06:49:50;;;;;;;4.65;2.42;;;;;;;21.62;73.72;96270.00;5085368;28;20501;-74
2022/08/23 06:52:19;;;;;;;7.05;3.42;;;;;;;21.78;71.00;96277.38;5084586;28;20089;-74
2022/08/23 06:55:15;;;;;;;6.22;2.72;;;;;;;22.26;68.24;96276.44;5083056;28;20387;-74
2022/08/23 06:58:00;;;;;;;5.05;2.78;;;;;;;22.25;66.07;96285.53;5085687;28;20105;-74
2022/08/23 07:00:31;;;;;;;4.13;2.35;;;;;;;22.90;61.55;96289.09;5081819;28;20043;-74
2022/08/23 07:03:24;;;;;;;11.48;4.28;;;;;;;23.22;59.33;96289.56;5082468;28;20034;-74
2022/08/23 07:06:08;;;;;;;11.43;7.68;;;;;;;23.32;57.48;96289.75;5081666;28;20815;-74
2022/08/23 07:08:36;;;;;;;6.18;2.40;;;;;;;23.75;55.10;96291.94;5085849;28;20489;-74
2022/08/23 07:11:02;;;;;;;6.15;2.40;;;;;;;23.56;55.87;96293.16;5079767;28;20032;-74
2022/08/23 07:13:28;;;;;;;4.72;2.00;;;;;;;24.07;55.86;96285.22;5087086;28;20024;-74
2022/08/23 07:15:58;;;;;;;5.88;2.10;;;;;;;22.52;61.60;96293.09;5086664;28;20740;-74
2022/08/23 07:18:25;;;;;;;4.75;2.22;;;;;;;24.12;52.56;96286.13;5086105;28;20032;-74
2022/08/23 07:20:56;;;;;;;5.15;2.60;;;;;;;23.88;56.07;96288.16;5076911;28;20043;-74
2022/08/23 07:23:22;;;;;;;4.20;2.10;;;;;;;23.03;58.33;96300.41;5075999;28;20040;-74
2022/08/23 07:25:48;;;;;;;7.45;2.35;;;;;;;24.81;53.06;96293.91;5079350;28;20109;-74
2022/08/23 07:28:18;;;;;;;4.68;2.20;;;;;;;24.29;52.66;96296.06;5081556;28;20040;-74
2022/08/23 07:30:45;;;;;;;3.95;1.73;;;;;;;25.01;50.78;96300.63;5082386;28;20048;-74
2022/08/23 07:33:10;;;;;;;4.22;2.00;;;;;;;25.01;51.07;96290.69;5078943;28;20531;-74
2022/08/23 07:35:56;;;;;;;4.85;2.40;;;;;;;25.19;49.97;96291.50;5083530;28;20028;-75
2022/08/23 07:38:21;;;;;;;5.60;2.45;;;;;;;25.70;45.99;96290.19;5081134;28;20032;-75
2022/08/23 07:40:47;;;;;;;3.67;2.15;;;;;;;25.80;46.91;96292.19;5079678;28;20060;-74
2022/08/23 07:43:13;;;;;;;4.57;2.60;;;;;;;25.92;44.69;96292.03;5083719;28;20028;-75
2022/08/23 07:45:42;;;;;;;4.20;2.38;;;;;;;26.63;44.55;96295.34;5078261;28;20085;-75
2022/08/23 07:48:10;;;;;;;6.38;2.78;;;;;;;26.65;43.47;96292.38;5081291;28;20062;-75
2022/08/23 07:50:54;;;;;;;4.88;2.50;;;;;;;26.27;45.88;96292.34;5073006;28;20146;-75
2022/08/23 07:53:21;;;;;;;4.07;2.20;;;;;;;26.36;43.99;96297.25;5088964;28;20028;-75
2022/08/23 07:55:47;;;;;;;5.30;2.47;;;;;;;26.19;44.20;96298.22;5088372;28;20012;-75
2022/08/23 07:58:30;;;;;;;6.15;2.78;;;;;;;26.92;42.90;96301.16;5081583;28;20031;-75
2022/08/23 08:01:20;;;;;;;5.45;2.22;;;;;;;27.14;41.24;96306.44;5082367;28;20387;-75
2022/08/23 08:03:52;;;;;;;5.93;2.40;;;;;;;25.41;44.04;96313.81;5088714;28;20034;-75
2022/08/23 08:06:32;;;;;;;4.07;2.25;;;;;;;26.18;43.73;96301.97;5087179;28;20077;-75
2022/08/23 08:08:59;;;;;;;4.20;2.20;;;;;;;25.85;44.66;96311.09;5087802;28;20039;-75
2022/08/23 08:11:27;;;;;;;3.95;2.03;;;;;;;26.49;42.63;96310.31;5087893;28;20068;-75
2022/08/23 08:13:55;;;;;;;6.35;2.47;;;;;;;26.51;42.62;96309.00;5083788;28;20032;-75
2022/08/23 08:16:27;;;;;;;4.78;2.40;;;;;;;27.12;40.90;96307.75;5086724;28;20028;-75
2022/08/23 08:18:56;;;;;;;5.78;2.25;;;;;;;26.79;41.45;96309.72;5065042;28;20039;-75
2022/08/23 08:21:44;;;;;;;5.43;2.08;;;;;;;28.04;37.87;96310.81;5089247;28;20523;-75
2022/08/23 08:24:33;;;;;;;3.80;2.13;;;;;;;28.78;36.78;96310.28;5081839;28;20098;-75
2022/08/23 08:27:07;;;;;;;4.90;2.17;;;;;;;28.18;38.45;96318.13;5083334;28;20032;-75
2022/08/23 08:29:33;;;;;;;4.85;2.25;;;;;;;27.88;37.59;96318.88;5096047;28;20379;-75
2022/08/23 08:31:59;;;;;;;5.03;2.55;;;;;;;28.64;36.42;96312.75;5066236;28;20207;-75
2022/08/23 08:34:25;;;;;;;5.22;2.10;;;;;;;29.28;36.24;96315.88;5082874;28;20090;-74
2022/08/23 08:36:54;;;;;;;3.90;2.00;;;;;;;29.79;35.23;96313.75;5082494;28;20474;-75
2022/08/23 08:39:29;;;;;;;4.93;2.25;;;;;;;29.68;34.79;96322.22;5084132;28;20119;-75
2022/08/23 08:42:16;;;;;;;3.58;2.00;;;;;;;30.04;33.92;96318.19;5085017;28;20036;-75
2022/08/23 08:45:08;;;;;;;5.72;2.20;;;;;;;29.97;34.92;96325.84;5081198;28;20048;-74
2022/08/23 08:47:46;;;;;;;6.28;2.53;;;;;;;30.92;32.39;96327.31;5085324;28;20626;-75
2022/08/23 08:50:26;;;;;;;6.97;2.03;;;;;;;30.65;32.76;96329.69;5086531;28;20032;-75
2022/08/23 08:53:01;;;;;;;3.47;2.10;;;;;;;30.85;33.31;96328.72;5083318;28;20131;-74
2022/08/23 08:55:55;;;;;;;6.22;3.03;;;;;;;28.62;35.39;96325.72;5072628;28;20338;-74
2022/08/23 08:58:44;;;;;;;7.53;2.25;;;;;;;29.78;34.85;96330.31;5079630;28;20477;-75
2022/08/23 09:01:11;;;;;;;4.95;2.20;;;;;;;30.30;33.02;96321.56;5086430;28;20093;-75
2022/08/23 09:03:39;;;;;;;4.07;2.03;;;;;;;30.79;32.35;96324.47;5085286;28;20840;-75
2022/08/23 09:06:43;;;;;;;4.07;1.85;;;;;;;30.57;31.43;96325.72;5082304;28;20457;-75
2022/08/23 09:09:46;;;;;;;4.30;2.35;;;;;;;31.12;31.73;96320.03;5072342;28;20044;-75
2022/08/23 09:12:23;;;;;;;;;;;;;;;30.09;32.54;96325.50;5075230;28;20032;-75
2022/08/23 09:15:17;;;;;;;4.70;2.03;;;;;;;29.49;33.31;96332.84;5092704;28;19916;-75
2022/08/23 09:17:47;;;;;;;6.03;2.50;;;;;;;30.18;32.50;96323.00;5065065;28;20944;-75
2022/08/23 09:20:16;;;;;;;6.43;3.60;;;;;;;31.85;29.53;96325.13;5074722;28;20036;-75
2022/08/23 09:22:56;;;;;;;5.25;2.00;;;;;;;31.55;29.13;96330.97;5078532;28;20073;-75
2022/08/23 09:25:29;;;;;;;3.60;1.73;;;;;;;31.85;28.19;96327.84;5085670;28;20031;-74
2022/08/23 09:28:02;;;;;;;5.18;1.65;;;;;;;31.87;28.03;96333.03;5079410;28;20037;-75
2022/08/23 09:30:49;;;;;;;6.90;1.83;;;;;;;32.56;26.69;96328.78;5085437;28;20039;-75
2022/08/23 09:33:18;;;;;;;5.15;2.00;;;;;;;30.41;29.73;96337.78;5084917;28;20063;-75
2022/08/23 09:36:03;;;;;;;3.38;1.77;;;;;;;30.10;29.63;96337.16;5078816;28;20134;-75
2022/08/23 09:38:35;;;;;;;6.78;1.73;;;;;;;29.09;31.74;96340.03;5072195;28;20035;-75
2022/08/23 09:41:19;;;;;;;5.05;1.65;;;;;;;30.91;29.06;96325.69;5082085;28;21371;-75
2022/08/23 09:43:47;;;;;;;5.05;1.95;;;;;;;31.72;28.63;96325.84;5096382;28;20040;-75
2022/08/23 09:46:40;;;;;;;2.85;1.60;;;;;;;30.85;27.95;96324.13;5072598;28;20630;-75
2022/08/23 09:49:26;;;;;;;3.92;1.77;;;;;;;31.18;28.05;96318.88;5081899;28;20032;-75
2022/08/23 09:52:11;;;;;;;5.75;2.15;;;;;;;30.57;28.81;96325.72;5082093;28;20035;-75
2022/08/23 09:54:40;;;;;;;3.67;2.00;;;;;;;31.43;28.77;96317.81;5064078;28;20056;-75
2022/08/23 09:57:10;;;;;;;4.93;1.67;;;;;;;31.39;28.38;96324.94;5062445;28;20032;-75
2022/08/23 09:59:44;;;;;;;4.05;1.75;;;;;;;33.14;26.51;96310.34;5080342;28;20035;-75
2022/08/23 10:02:21;;;;;;;4.18;1.83;;;;;;;31.77;27.49;96322.28;5082191;28;20161;-75
2022/08/23 10:04:53;;;;;;;6.28;2.00;;;;;;;31.57;27.93;96321.44;5082617;28;20555;-77
2022/08/23 10:07:40;;;;;;;3.30;1.75;;;;;;;32.33;27.81;96313.34;5064643;28;20040;-75
2022/08/23 10:10:27;;;;;;;6.10;2.10;;;;;;;32.97;26.92;96311.72;5080168;28;20466;-75
2022/08/23 10:12:57;;;;;;;3.67;2.08;;;;;;;32.64;26.40;96316.38;5072454;28;20127;-75
2022/08/23 10:15:53;;;;;;;5.47;1.75;;;;;;;32.85;27.16;96297.75;5084132;28;20035;-75
2022/08/23 10:18:37;;;;;;;6.80;2.08;;;;;;;33.21;27.06;96305.28;5052298;28;20048;-72
2022/08/23 10:21:12;;;;;;;4.10;1.85;;;;;;;33.83;25.91;96311.09;5085648;28;20401;-73
2022/08/23 10:23:54;;;;;;;5.43;1.85;;;;;;;33.44;26.76;96309.72;5086201;28;20136;-74
2022/08/23 10:26:33;;;;;;;5.55;2.00;;;;;;;33.42;26.59;96306.47;5084269;28;20111;-74
2022/08/23 10:31:59;;;;;;;4.65;1.60;;;;;;;34.21;26.11;96316.28;5080626;28;20040;-74
2022/08/23 10:34:47;;;;;;;5.28;1.73;;;;;;;32.12;27.29;96315.53;5087589;28;20119;-74
2022/08/23 10:37:49;;;;;;;5.13;2.22;;;;;;;33.76;25.54;96303.31;5064062;28;21407;-73
2022/08/23 10:40:39;;;;;;;4.50;1.80;;;;;;;33.85;26.23;96300.69;5079139;28;20036;-74
2022/08/23 10:43:26;;;;;;;2.78;1.70;;;;;;;33.02;27.47;96306.16;5081562;28;20409;-74
2022/08/23 10:45:56;;;;;;;3.28;1.80;;;;;;;32.95;27.97;96304.94;5075918;28;20064;-74
2022/08/23 10:48:40;;;;;;;3.75;1.77;;;;;;;33.22;26.71;96304.16;5087018;28;20056;-74
2022/08/23 10:51:14;;;;;;;6.68;2.28;;;;;;;33.27;26.31;96298.63;5086162;28;20036;-73
2022/08/23 10:54:08;;;;;;;4.53;1.77;;;;;;;33.46;25.76;96298.50;5084509;28;20121;-74
2022/08/23 10:56:37;;;;;;;3.97;2.10;;;;;;;31.98;27.72;96301.06;5077442;28;20040;-74
2022/08/23 10:59:15;;;;;;;3.70;1.80;;;;;;;32.03;28.20;96298.28;5079299;28;20033;-74
2022/08/23 11:01:45;;;;;;;4.32;1.77;;;;;;;32.81;27.16;96288.56;5079849;28;20032;-73
2022/08/23 11:04:17;;;;;;;8.18;4.93;;;;;;;33.55;26.79;96286.59;5077562;28;20120;-73
2022/08/23 11:07:00;;;;;;;7.88;5.97;;;;;;;33.53;26.40;96288.81;5060004;28;20085;-75
2022/08/23 11:09:35;;;;;;;9.52;6.88;;;;;;;32.94;26.40;96285.06;5074363;28;20027;-73
2022/08/23 11:12:09;;;;;;;3.33;1.90;;;;;;;32.30;27.79;96289.44;5075227;28;20024;-73
2022/08/23 11:14:58;;;;;;;3.58;1.90;;;;;;;31.86;28.00;96283.25;5073612;28;20036;-74
2022/08/23 11:17:47;;;;;;;5.75;2.05;;;;;;;33.21;27.23;96283.50;5073167;28;20193;-75
2022/08/23 11:20:48;;;;;;;6.10;1.63;;;;;;;31.48;29.67;96285.13;5073672;28;20035;-73
2022/08/23 11:23:56;;;;;;;4.60;2.10;;;;;;;31.93;27.70;96281.00;5057046;28;20039;-73
2022/08/23 11:26:35;;;;;;;6.28;1.95;;;;;;;33.20;28.18;96268.22;5073288;28;20032;-76
2022/08/23 11:29:04;;;;;;;5.20;2.15;;;;;;;33.47;26.59;96268.22;5080882;28;20031;-73
2022/08/23 11:32:15;;;;;;;7.57;2.40;;;;;;;33.16;27.51;96273.47;5080617;28;20070;-73
2022/08/23 11:34:52;;;;;;;4.60;1.98;;;;;;;32.95;27.34;96273.03;5082120;28;20035;-73
2022/08/23 11:37:18;;;;;;;5.85;2.00;;;;;;;32.11;27.09;96275.84;5081710;28;20036;-73
2022/08/23 11:39:58;;;;;;;3.42;1.60;;;;;;;31.16;28.96;96275.72;5077182;28;20057;-74
2022/08/23 11:42:39;;;;;;;5.50;2.00;;;;;;;30.60;29.95;96275.47;5077557;28;20039;-73
2022/08/23 11:45:21;;;;;;;;;;;;;;;30.99;28.83;96267.22;5086133;28;20515;-75
2022/08/23 11:48:33;;;;;;;3.85;2.05;;;;;;;32.82;26.31;96266.47;5077654;28;19950;-74
2022/08/23 11:51:08;;;;;;;5.18;2.30;;;;;;;33.49;26.15;96271.47;5065313;28;20390;-74
2022/08/23 11:53:42;;;;;;;2.90;1.58;;;;;;;32.60;26.79;96266.34;5080067;28;20723;-74
2022/08/23 11:56:23;;;;;;;4.18;1.88;;;;;;;31.81;27.70;96268.91;5084028;28;20497;-75
2022/08/23 11:59:07;;;;;;;2.67;1.38;;;;;;;32.36;28.11;96271.88;5080254;28;20065;-74
2022/08/23 12:01:37;;;;;;;4.03;1.80;;;;;;;32.93;27.20;96258.94;5080597;28;20024;-74
2022/08/23 12:04:09;;;;;;;6.00;2.10;;;;;;;33.55;26.46;96259.34;5076143;28;20024;-74
2022/08/23 12:07:00;;;;;;;6.15;2.00;;;;;;;32.20;27.26;96259.66;5082304;28;20028;-74